createdAt,value
2022-12-18T00:01:34.983Z,29.43
2022-12-18T00:04:03.952Z,33.87
2022-12-18T00:06:33.601Z,38.57
2022-12-18T00:09:02.465Z,38.53
2022-12-18T00:11:31.716Z,37.53
2022-12-18T00:14:00.785Z,34.50
2022-12-18T00:16:31.018Z,38.27
2022-12-18T00:19:01.933Z,31.87
2022-12-18T00:21:30.772Z,34.30
2022-12-18T00:23:59.209Z,38.17
2022-12-18T00:26:28.156Z,36.17
2022-12-18T00:28:57.610Z,38.27
2022-12-18T00:31:27.081Z,38.70
2022-12-18T00:33:56.500Z,40.03
2022-12-18T00:36:27.122Z,35.60
2022-12-18T00:38:56.337Z,36.23
2022-12-18T00:41:42.922Z,37.07
2022-12-18T00:44:12.576Z,36.50
2022-12-18T00:46:40.993Z,37.17
2022-12-18T00:49:09.552Z,37.73
2022-12-18T00:51:39.240Z,35.33
2022-12-18T00:54:07.524Z,34.87
2022-12-18T00:56:48.019Z,38.43
2022-12-18T00:59:17.295Z,39.20
2022-12-18T01:01:45.801Z,38.80
2022-12-18T01:04:14.295Z,38.17
2022-12-18T01:06:44.774Z,40.40
2022-12-18T01:09:13.114Z,34.73
2022-12-18T01:11:41.341Z,35.90
2022-12-18T01:14:09.628Z,35.93
2022-12-18T01:16:37.923Z,37.50
2022-12-18T01:19:06.225Z,37.43
2022-12-18T01:21:34.867Z,36.53
2022-12-18T01:24:04.549Z,35.37
2022-12-18T01:26:32.941Z,36.43
2022-12-18T01:29:01.294Z,38.20
2022-12-18T01:31:30.495Z,37.40
2022-12-18T01:33:59.366Z,37.97
2022-12-18T01:36:29.592Z,38.63
2022-12-18T01:38:58.327Z,37.50
2022-12-18T01:41:49.624Z,39.10
2022-12-18T01:44:41.720Z,39.03
2022-12-18T01:47:21.414Z,38.50
2022-12-18T01:49:49.758Z,40.47
2022-12-18T01:52:18.499Z,41.73
2022-12-18T01:54:47.181Z,38.83
2022-12-18T01:57:16.954Z,47.00
2022-12-18T01:59:45.882Z,40.20
2022-12-18T02:02:14.551Z,44.47
2022-12-18T02:04:49.213Z,46.57
2022-12-18T02:07:21.608Z,42.13
2022-12-18T02:09:51.439Z,41.37
2022-12-18T02:12:22.344Z,38.20
2022-12-18T02:14:53.723Z,38.57
2022-12-18T02:17:23.030Z,43.13
2022-12-18T02:19:57.707Z,41.23
2022-12-18T02:22:32.778Z,44.20
2022-12-18T02:25:05.555Z,43.53
2022-12-18T02:27:36.532Z,47.27
2022-12-18T02:30:06.513Z,43.60
2022-12-18T02:32:37.493Z,44.97
2022-12-18T02:35:07.555Z,41.07
2022-12-18T02:37:37.135Z,43.97
2022-12-18T02:40:06.502Z,45.10
2022-12-18T02:42:36.123Z,40.77
2022-12-18T02:45:04.521Z,38.63
2022-12-18T02:47:34.032Z,46.03
2022-12-18T02:50:05.371Z,44.97
2022-12-18T02:52:38.097Z,44.17
2022-12-18T02:55:15.197Z,40.33
2022-12-18T02:57:47.297Z,38.23
2022-12-18T03:00:17.371Z,42.67
2022-12-18T03:02:48.599Z,36.57
2022-12-18T03:05:19.661Z,45.53
2022-12-18T03:07:50.750Z,38.40
2022-12-18T03:10:21.015Z,41.10
2022-12-18T03:12:54.235Z,44.50
2022-12-18T03:15:24.741Z,41.00
2022-12-18T03:17:55.491Z,38.87
2022-12-18T03:20:24.774Z,39.93
2022-12-18T03:22:55.807Z,40.67
2022-12-18T03:25:24.518Z,42.53
2022-12-18T03:27:57.432Z,36.47
2022-12-18T03:30:25.707Z,44.93
2022-12-18T03:33:00.222Z,40.80
2022-12-18T03:35:31.318Z,37.60
2022-12-18T03:37:59.539Z,37.10
2022-12-18T03:40:32.736Z,40.33
2022-12-18T03:43:05.570Z,45.23
2022-12-18T03:45:37.343Z,41.57
2022-12-18T03:48:07.774Z,38.67
2022-12-18T03:50:40.629Z,42.47
2022-12-18T03:53:16.716Z,38.83
2022-12-18T03:55:46.300Z,38.30
2022-12-18T03:58:19.180Z,37.73
2022-12-18T04:00:47.901Z,43.10
2022-12-18T04:03:16.504Z,41.37
2022-12-18T04:05:45.972Z,39.87
2022-12-18T04:08:14.829Z,37.53
2022-12-18T04:10:43.136Z,41.60
2022-12-18T04:13:12.160Z,34.23
2022-12-18T04:15:42.364Z,40.10
2022-12-18T04:18:10.726Z,37.87
2022-12-18T04:20:38.921Z,34.90
2022-12-18T04:23:07.288Z,35.90
2022-12-18T04:25:35.524Z,41.00
2022-12-18T04:28:03.724Z,35.00
2022-12-18T04:30:31.946Z,33.33
2022-12-18T04:33:01.576Z,37.33
2022-12-18T04:35:29.794Z,35.47
2022-12-18T04:37:58.159Z,34.70
2022-12-18T04:40:26.429Z,36.57
2022-12-18T04:42:54.666Z,32.00
2022-12-18T04:45:22.914Z,36.30
2022-12-18T04:47:51.174Z,36.80
2022-12-18T04:50:20.888Z,36.63
2022-12-18T04:52:49.131Z,36.20
2022-12-18T04:55:17.487Z,33.80
2022-12-18T04:57:45.760Z,37.63
2022-12-18T05:00:14.661Z,32.07
2022-12-18T05:02:43.092Z,35.37
2022-12-18T05:05:11.434Z,36.70
2022-12-18T05:07:41.052Z,34.43
2022-12-18T05:10:14.518Z,34.13
2022-12-18T05:12:56.650Z,34.33
2022-12-18T05:15:24.852Z,35.20
2022-12-18T05:17:53.107Z,32.87
2022-12-18T05:20:21.461Z,29.27
2022-12-18T05:22:51.178Z,33.77
2022-12-18T05:25:19.706Z,31.53
2022-12-18T05:27:49.132Z,33.47
2022-12-18T05:30:18.032Z,32.57
2022-12-18T05:32:46.217Z,27.57
2022-12-18T05:35:14.451Z,27.73
2022-12-18T05:37:43.411Z,31.87
2022-12-18T05:40:14.006Z,28.77
2022-12-18T05:42:42.442Z,28.80
2022-12-18T05:45:11.139Z,30.97
2022-12-18T05:47:39.331Z,31.33
2022-12-18T05:50:08.486Z,30.80
2022-12-18T05:52:36.698Z,33.60
2022-12-18T05:55:05.322Z,30.40
2022-12-18T05:57:34.860Z,30.33
2022-12-18T06:00:03.136Z,29.00
2022-12-18T06:02:31.524Z,28.00
2022-12-18T06:04:59.808Z,31.40
2022-12-18T06:07:28.105Z,28.63
2022-12-18T06:09:56.369Z,30.37
2022-12-18T06:12:24.584Z,35.97
2022-12-18T06:14:54.180Z,31.57
2022-12-18T06:17:22.373Z,30.03
2022-12-18T06:19:50.582Z,27.40
2022-12-18T06:22:18.872Z,26.93
2022-12-18T06:24:47.128Z,25.77
2022-12-18T06:27:15.674Z,26.17
2022-12-18T06:29:44.327Z,25.40
2022-12-18T06:32:13.985Z,25.67
2022-12-18T06:34:42.215Z,24.53
2022-12-18T06:37:10.428Z,27.20
2022-12-18T06:39:38.652Z,23.57
2022-12-18T06:42:07.087Z,25.77
2022-12-18T06:44:35.385Z,25.53
2022-12-18T06:47:03.630Z,23.13
2022-12-18T06:49:33.234Z,30.10
2022-12-18T06:52:01.476Z,24.20
2022-12-18T06:54:29.724Z,23.20
2022-12-18T06:56:57.886Z,27.27
2022-12-18T06:59:26.204Z,24.37
2022-12-18T07:01:55.501Z,25.70
2022-12-18T07:04:24.415Z,31.57
2022-12-18T07:06:53.975Z,27.47
2022-12-18T07:09:22.483Z,22.60
2022-12-18T07:11:50.684Z,26.20
2022-12-18T07:14:18.910Z,24.67
2022-12-18T07:16:47.196Z,27.20
2022-12-18T07:19:15.534Z,34.93
2022-12-18T07:21:43.771Z,30.37
2022-12-18T07:24:13.521Z,28.97
2022-12-18T07:26:41.835Z,26.13
2022-12-18T07:29:10.106Z,31.17
2022-12-18T07:31:38.548Z,28.20
2022-12-18T07:34:06.781Z,27.13
2022-12-18T07:36:35.028Z,22.47
2022-12-18T07:39:03.537Z,22.97
2022-12-18T07:41:33.839Z,25.10
2022-12-18T07:44:02.089Z,26.53
2022-12-18T07:46:30.625Z,25.33
2022-12-18T07:48:59.072Z,23.70
2022-12-18T07:51:27.384Z,21.23
2022-12-18T07:53:56.148Z,21.63
2022-12-18T07:56:27.575Z,22.07
2022-12-18T07:58:59.094Z,23.07
2022-12-18T08:01:27.570Z,22.70
2022-12-18T08:03:56.042Z,24.70
2022-12-18T08:06:24.889Z,25.10
2022-12-18T08:08:53.777Z,20.23
2022-12-18T08:11:22.069Z,20.50
2022-12-18T08:13:50.437Z,22.27
2022-12-18T08:16:20.723Z,20.33
2022-12-18T08:18:49.493Z,18.50
2022-12-18T08:21:19.260Z,18.37
2022-12-18T08:23:50.305Z,17.80
2022-12-18T08:26:19.774Z,17.13
2022-12-18T08:28:49.255Z,18.87
2022-12-18T08:31:20.261Z,25.97
2022-12-18T08:33:51.477Z,38.83
2022-12-18T08:36:20.082Z,29.20
2022-12-18T08:38:48.655Z,22.53
2022-12-18T08:41:17.765Z,17.47
2022-12-18T08:44:03.723Z,16.50
2022-12-18T08:46:36.678Z,16.73
2022-12-18T08:49:05.666Z,17.60
2022-12-18T08:51:34.055Z,16.10
2022-12-18T08:54:02.816Z,17.47
2022-12-18T08:56:32.354Z,19.73
2022-12-18T08:59:00.638Z,18.27
2022-12-18T09:01:29.615Z,14.63
2022-12-18T09:03:59.259Z,14.50
2022-12-18T09:06:27.600Z,16.47
2022-12-18T09:08:55.894Z,13.60
2022-12-18T09:11:24.908Z,14.40
2022-12-18T09:13:53.254Z,12.80
2022-12-18T09:16:23.121Z,14.47
2022-12-18T09:18:54.887Z,13.87
2022-12-18T09:21:24.481Z,13.70
2022-12-18T09:23:52.732Z,13.23
2022-12-18T09:26:21.070Z,12.17
2022-12-18T09:28:49.304Z,12.27
2022-12-18T09:31:18.392Z,12.50
2022-12-18T09:33:46.967Z,10.83
2022-12-18T09:36:16.302Z,18.27
2022-12-18T09:38:46.272Z,14.73
2022-12-18T09:41:22.197Z,21.87
2022-12-18T09:43:52.688Z,19.60
2022-12-18T09:46:27.005Z,17.07
2022-12-18T09:48:57.286Z,17.50
2022-12-18T09:51:26.770Z,16.57
2022-12-18T09:53:58.400Z,12.23
2022-12-18T09:56:29.319Z,11.47
2022-12-18T09:59:00.099Z,10.37
2022-12-18T10:01:36.386Z,11.90
2022-12-18T10:04:11.540Z,10.50
2022-12-18T10:06:44.952Z,10.70
2022-12-18T10:09:20.884Z,11.07
2022-12-18T10:11:52.233Z,10.70
2022-12-18T10:14:23.278Z,9.70
2022-12-18T10:16:58.714Z,9.67
2022-12-18T10:19:37.672Z,10.27
2022-12-18T10:22:11.646Z,10.27
2022-12-18T10:24:42.732Z,10.97
2022-12-18T10:27:15.480Z,9.70
2022-12-18T10:29:44.649Z,12.10
2022-12-18T10:32:17.145Z,15.07
2022-12-18T10:34:47.991Z,19.83
2022-12-18T10:37:18.866Z,22.80
2022-12-18T10:39:48.475Z,17.03
2022-12-18T10:42:19.642Z,29.37
2022-12-18T10:44:47.903Z,21.93
2022-12-18T10:47:17.514Z,20.50
2022-12-18T10:49:50.285Z,22.47
2022-12-18T10:52:20.041Z,18.13
2022-12-18T10:54:51.961Z,12.27
2022-12-18T10:57:31.766Z,19.20
2022-12-18T11:00:00.700Z,12.83
2022-12-18T11:02:29.945Z,11.87
2022-12-18T11:04:58.367Z,12.30
2022-12-18T11:07:26.623Z,12.27
2022-12-18T11:10:07.883Z,11.73
2022-12-18T11:12:36.131Z,12.43
2022-12-18T11:15:04.483Z,10.87
2022-12-18T11:17:34.557Z,14.13
2022-12-18T11:20:03.833Z,14.77
2022-12-18T11:22:33.022Z,15.80
2022-12-18T11:27:55.864Z,13.10
2022-12-18T11:30:25.600Z,13.07
2022-12-18T11:32:55.975Z,12.87
2022-12-18T11:35:27.833Z,9.97
2022-12-18T11:37:58.641Z,9.53
2022-12-18T11:40:34.367Z,11.77
2022-12-18T11:43:13.099Z,15.13
2022-12-18T11:45:44.032Z,10.73
2022-12-18T11:48:17.411Z,9.03
2022-12-18T11:50:49.158Z,12.53
2022-12-18T11:53:17.617Z,11.87
2022-12-18T11:55:51.658Z,11.43
2022-12-18T11:58:31.330Z,11.00
2022-12-18T12:01:06.082Z,14.63
2022-12-18T12:03:45.551Z,13.27
2022-12-18T12:06:18.802Z,12.23
2022-12-18T12:08:59.397Z,13.57
2022-12-18T12:11:32.432Z,12.37
2022-12-18T12:14:06.903Z,15.20
2022-12-18T12:16:38.898Z,12.47
2022-12-18T12:19:16.683Z,11.80
2022-12-18T12:21:47.153Z,13.07
2022-12-18T12:24:30.294Z,10.67
2022-12-18T12:27:03.955Z,12.10
2022-12-18T12:29:40.067Z,12.60
2022-12-18T12:32:14.369Z,10.50
2022-12-18T12:34:48.997Z,10.47
2022-12-18T12:37:23.560Z,12.10
2022-12-18T12:39:53.504Z,11.17
2022-12-18T12:42:43.182Z,13.57
2022-12-18T12:45:17.817Z,18.40
2022-12-18T12:47:47.377Z,14.20
2022-12-18T12:50:18.402Z,19.03
2022-12-18T12:52:48.743Z,13.90
2022-12-18T12:55:19.149Z,13.00
2022-12-18T12:57:56.241Z,13.30
2022-12-18T13:00:26.669Z,13.23
2022-12-18T13:02:57.601Z,12.93
2022-12-18T13:05:29.764Z,13.17
2022-12-18T13:07:59.991Z,16.93
2022-12-18T13:10:33.554Z,10.90
2022-12-18T13:13:03.548Z,15.83
2022-12-18T13:15:38.248Z,14.57
2022-12-18T13:18:18.841Z,12.87
2022-12-18T13:20:53.087Z,12.83
2022-12-18T13:23:39.748Z,11.83
2022-12-18T13:26:32.848Z,12.17
2022-12-18T13:29:05.073Z,10.00
2022-12-18T13:31:51.714Z,11.03
2022-12-18T13:34:29.482Z,11.53
2022-12-18T13:37:00.534Z,12.47
2022-12-18T13:39:36.788Z,11.97
2022-12-18T13:42:38.341Z,15.50
2022-12-18T13:45:32.031Z,11.00
2022-12-18T13:48:00.267Z,12.90
2022-12-18T13:50:35.468Z,11.33
2022-12-18T13:53:05.979Z,12.07
2022-12-18T13:55:34.829Z,11.63
2022-12-18T13:58:06.506Z,14.17
2022-12-18T14:00:37.214Z,14.13
2022-12-18T14:03:22.469Z,12.67
2022-12-18T14:05:55.432Z,9.87
2022-12-18T14:08:23.887Z,11.83
2022-12-18T14:10:54.041Z,11.30
2022-12-18T14:13:26.024Z,11.73
2022-12-18T14:15:56.668Z,12.53
2022-12-18T14:18:26.894Z,10.13
2022-12-18T14:20:55.718Z,11.17
2022-12-18T14:23:31.951Z,10.43
2022-12-18T14:26:05.328Z,11.13
2022-12-18T14:28:34.397Z,10.13
2022-12-18T14:31:04.002Z,10.37
2022-12-18T14:33:32.498Z,9.73
2022-12-18T14:36:01.538Z,10.20
2022-12-18T14:38:31.214Z,10.87
2022-12-18T14:41:00.082Z,10.50
2022-12-18T14:43:28.956Z,10.07
2022-12-18T14:45:57.580Z,11.47
2022-12-18T14:48:35.956Z,8.17
2022-12-18T14:51:05.177Z,8.37
2022-12-18T14:53:39.057Z,9.37
2022-12-18T14:56:15.879Z,9.73
2022-12-18T14:58:47.394Z,10.40
2022-12-18T15:01:20.865Z,10.57
2022-12-18T15:03:50.650Z,10.27
2022-12-18T15:06:19.501Z,8.43
2022-12-18T15:08:47.732Z,9.50
2022-12-18T15:11:28.869Z,11.87
2022-12-18T15:14:00.147Z,9.80
2022-12-18T15:16:28.425Z,9.93
2022-12-18T15:18:58.004Z,9.40
2022-12-18T15:21:26.302Z,12.93
2022-12-18T15:23:55.279Z,11.40
2022-12-18T15:26:24.026Z,10.93
2022-12-18T15:28:53.474Z,10.07
2022-12-18T15:31:26.612Z,12.13
2022-12-18T15:34:13.210Z,10.67
2022-12-18T15:36:41.522Z,9.53
2022-12-18T15:39:12.944Z,10.83
2022-12-18T15:41:41.279Z,15.37
2022-12-18T15:44:23.016Z,9.33
2022-12-18T15:46:51.300Z,9.77
2022-12-18T15:49:20.846Z,8.03
2022-12-18T15:51:52.050Z,8.63
2022-12-18T15:54:40.217Z,8.73
2022-12-18T15:57:25.252Z,12.50
2022-12-18T15:59:54.622Z,13.13
2022-12-18T16:02:24.660Z,9.43
2022-12-18T16:04:55.404Z,11.30
2022-12-18T16:07:26.060Z,8.93
2022-12-18T16:09:55.593Z,9.97
2022-12-18T16:12:26.982Z,11.30
2022-12-18T16:14:55.207Z,7.33
2022-12-18T16:17:23.412Z,7.03
2022-12-18T16:19:51.628Z,9.57
2022-12-18T16:22:23.323Z,7.47
2022-12-18T16:24:51.920Z,8.87
2022-12-18T16:27:20.744Z,7.07
2022-12-18T16:29:49.051Z,8.93
2022-12-18T16:32:18.463Z,11.23
2022-12-18T16:34:47.033Z,7.73
2022-12-18T16:37:16.298Z,10.53
2022-12-18T16:39:45.937Z,8.10
2022-12-18T16:42:17.174Z,12.13
2022-12-18T16:44:45.771Z,7.80
2022-12-18T16:47:14.967Z,7.63
2022-12-18T16:49:45.322Z,8.37
2022-12-18T16:52:13.565Z,14.90
2022-12-18T16:54:41.770Z,19.73
2022-12-18T16:57:11.826Z,9.03
2022-12-18T16:59:40.019Z,7.87
2022-12-18T17:02:08.648Z,7.60
2022-12-18T17:04:36.912Z,7.53
2022-12-18T17:07:05.114Z,8.17
2022-12-18T17:09:33.303Z,8.87
2022-12-18T17:12:04.396Z,13.17
2022-12-18T17:14:34.604Z,9.33
2022-12-18T17:19:51.157Z,7.50
2022-12-18T17:22:19.402Z,10.60
2022-12-18T17:25:03.531Z,9.93
2022-12-18T17:27:31.846Z,9.80
2022-12-18T17:30:01.377Z,8.27
2022-12-18T17:32:29.555Z,13.03
2022-12-18T17:35:00.473Z,15.03
2022-12-18T17:37:30.915Z,10.37
2022-12-18T17:39:59.127Z,11.03
2022-12-18T17:42:27.308Z,9.87
2022-12-18T17:44:55.491Z,9.87
2022-12-18T17:47:25.021Z,9.67
2022-12-18T17:49:53.305Z,11.73
2022-12-18T17:52:23.016Z,8.43
2022-12-18T17:54:51.221Z,8.37
2022-12-18T17:57:19.466Z,9.53
2022-12-18T17:59:47.686Z,7.43
2022-12-18T18:02:16.063Z,9.87
2022-12-18T18:04:45.778Z,9.33
2022-12-18T18:07:13.967Z,8.27
2022-12-18T18:09:42.333Z,9.93
2022-12-18T18:12:28.348Z,12.97
2022-12-18T18:15:01.581Z,11.33
2022-12-18T18:17:29.868Z,9.80
2022-12-18T18:19:59.439Z,10.33
2022-12-18T18:22:27.681Z,10.10
2022-12-18T18:24:56.354Z,7.33
2022-12-18T18:27:24.552Z,10.53
2022-12-18T18:29:53.129Z,9.97
2022-12-18T18:32:21.306Z,8.63
2022-12-18T18:34:49.585Z,8.00
2022-12-18T18:37:19.106Z,11.17
2022-12-18T18:39:47.357Z,9.03
2022-12-18T18:42:15.537Z,10.77
2022-12-18T18:44:48.712Z,9.40
2022-12-18T18:47:17.291Z,11.13
2022-12-18T18:49:45.478Z,11.07
2022-12-18T18:52:13.683Z,12.30
2022-12-18T18:55:03.617Z,11.03
2022-12-18T18:57:31.440Z,12.43
2022-12-18T18:59:59.719Z,10.67
2022-12-18T19:02:28.038Z,12.37
2022-12-18T19:04:57.324Z,10.40
2022-12-18T19:07:30.195Z,14.77
2022-12-18T19:10:04.786Z,11.33
2022-12-18T19:12:51.699Z,13.13
2022-12-18T19:15:19.976Z,13.03
2022-12-18T19:17:48.596Z,17.90
2022-12-18T19:20:17.158Z,17.47
2022-12-18T19:22:49.046Z,15.27
2022-12-18T19:25:31.021Z,12.43
2022-12-18T19:28:19.274Z,17.60
2022-12-18T19:30:50.516Z,15.27
2022-12-18T19:33:41.603Z,13.70
2022-12-18T19:36:17.055Z,15.23
2022-12-18T19:38:45.734Z,17.47
2022-12-18T19:41:15.653Z,17.37
2022-12-18T19:43:44.361Z,15.43
2022-12-18T19:46:13.392Z,14.23
2022-12-18T19:48:42.227Z,13.10
2022-12-18T19:51:12.042Z,15.67
2022-12-18T19:53:40.283Z,14.63
2022-12-18T19:56:08.892Z,14.40
2022-12-18T19:58:39.440Z,13.87
2022-12-18T20:01:08.036Z,13.80
2022-12-18T20:03:37.637Z,14.83
2022-12-18T20:06:09.698Z,14.23
2022-12-18T20:08:38.025Z,15.27
2022-12-18T20:11:06.401Z,14.30
2022-12-18T20:13:34.964Z,17.63
2022-12-18T20:16:04.650Z,15.97
2022-12-18T20:18:32.961Z,15.80
2022-12-18T20:21:01.560Z,19.27
2022-12-18T20:23:32.804Z,16.50
2022-12-18T20:26:02.585Z,16.87
2022-12-18T20:28:32.396Z,21.47
2022-12-18T20:31:01.497Z,19.23
2022-12-18T20:33:31.142Z,17.23
2022-12-18T20:36:02.696Z,18.33
2022-12-18T20:38:31.663Z,16.63
2022-12-18T20:41:02.409Z,18.40
2022-12-18T20:43:30.750Z,20.43
2022-12-18T20:46:03.015Z,17.47
2022-12-18T20:48:33.486Z,14.87
2022-12-18T20:51:03.626Z,16.80
2022-12-18T20:53:32.579Z,16.13
2022-12-18T20:56:02.078Z,18.40
2022-12-18T20:58:30.353Z,18.93
2022-12-18T21:01:04.270Z,16.10
2022-12-18T21:03:34.034Z,22.40
2022-12-18T21:06:02.248Z,20.00
2022-12-18T21:08:30.472Z,23.27
2022-12-18T21:10:59.900Z,20.43
2022-12-18T21:13:52.182Z,21.00
2022-12-18T21:16:20.523Z,17.90
2022-12-18T21:18:50.129Z,18.47
2022-12-18T21:21:26.058Z,16.23
2022-12-18T21:23:54.917Z,19.37
2022-12-18T21:26:24.180Z,20.57
2022-12-18T21:28:55.198Z,20.27
2022-12-18T21:31:23.971Z,18.50
2022-12-18T21:33:59.765Z,23.10
2022-12-18T21:36:30.883Z,21.97
2022-12-18T21:38:59.941Z,21.10
2022-12-18T21:41:45.840Z,21.97
2022-12-18T21:44:15.444Z,23.17
2022-12-18T21:46:44.562Z,20.67
2022-12-18T21:49:17.267Z,22.80
2022-12-18T21:51:46.073Z,21.33
2022-12-18T21:54:14.266Z,21.13
2022-12-18T21:56:49.958Z,22.43
2022-12-18T21:59:18.660Z,20.63
2022-12-18T22:01:47.343Z,20.43
2022-12-18T22:04:17.112Z,19.87
2022-12-18T22:06:45.550Z,20.10
2022-12-18T22:09:14.666Z,22.50
2022-12-18T22:11:43.165Z,24.77
2022-12-18T22:14:11.418Z,24.90
2022-12-18T22:16:39.667Z,26.57
2022-12-18T22:19:08.003Z,28.07
2022-12-18T22:21:38.373Z,30.97
2022-12-18T22:24:07.235Z,29.87
2022-12-18T22:26:40.109Z,25.07
2022-12-18T22:29:26.760Z,25.77
2022-12-18T22:31:55.016Z,27.53
2022-12-18T22:34:23.518Z,29.97
2022-12-18T22:36:53.227Z,27.47
2022-12-18T22:39:22.787Z,30.37
2022-12-18T22:41:51.022Z,28.43
2022-12-18T22:44:19.396Z,26.97
2022-12-18T22:46:50.771Z,26.03
2022-12-18T22:49:35.201Z,25.97
2022-12-18T22:52:05.461Z,27.07
2022-12-18T22:54:33.720Z,27.83
2022-12-18T22:57:01.910Z,27.07
2022-12-18T22:59:30.163Z,24.23
2022-12-18T23:01:59.330Z,26.70
2022-12-18T23:04:30.029Z,26.10
2022-12-18T23:07:06.282Z,26.27
2022-12-18T23:09:34.849Z,28.83
2022-12-18T23:12:03.273Z,27.50
2022-12-18T23:14:31.837Z,26.53
2022-12-18T23:17:00.119Z,27.20
2022-12-18T23:19:29.033Z,29.77
2022-12-18T23:21:58.776Z,28.27
2022-12-18T23:24:28.427Z,29.00
2022-12-18T23:26:59.519Z,30.47
2022-12-18T23:29:27.772Z,28.53
2022-12-18T23:31:56.030Z,26.97
2022-12-18T23:34:24.280Z,27.50
2022-12-18T23:36:55.995Z,31.07
2022-12-18T23:39:29.898Z,27.13
2022-12-18T23:41:59.787Z,27.83
2022-12-18T23:44:28.012Z,26.60
2022-12-18T23:46:56.495Z,29.33
2022-12-18T23:49:24.825Z,27.60
2022-12-18T23:51:55.199Z,28.03
2022-12-18T23:54:31.708Z,28.00
2022-12-18T23:57:02.944Z,27.70
2022-12-18T23:59:31.164Z,28.60
